Time;durP1;ratioP1;P1;durP2;ratioP2;P2;SDS_P1;SDS_P2;PMS_P1;PMS_P2;Temp;Humidity;BMP_temperature;BMP_pressure;BME280_temperature;BME280_humidity;BME280_pressure;Samples;Min_cycle;Max_cycle;Signal;HPM_P1;HPM_P2
2022/10/28 00:01:03;;;;;;;14.18;11.00;;;13.30;99.90;;;;;;4991337;28;20097;-83
2022/10/28 00:03:29;;;;;;;16.10;10.40;;;13.40;99.90;;;;;;4990638;28;20497;-83
2022/10/28 00:06:07;;;;;;;19.50;10.77;;;13.50;99.90;;;;;;4991281;28;20038;-83
2022/10/28 00:08:33;;;;;;;15.48;9.90;;;13.30;99.90;;;;;;4992591;28;20039;-83
2022/10/28 00:11:10;;;;;;;15.38;10.18;;;13.30;99.90;;;;;;4991369;28;20046;-83
2022/10/28 00:13:36;;;;;;;18.42;10.88;;;13.20;99.90;;;;;;4990525;28;20488;-83
2022/10/28 00:16:04;;;;;;;15.05;10.02;;;13.20;99.90;;;;;;4991320;28;20042;-83
2022/10/28 00:18:30;;;;;;;16.15;10.40;;;13.20;99.90;;;;;;4990536;28;20053;-83
2022/10/28 00:21:04;;;;;;;15.85;9.68;;;13.50;99.90;;;;;;4990814;28;20042;-83
2022/10/28 00:23:30;;;;;;;15.43;10.25;;;13.20;99.90;;;;;;4992040;28;20088;-83
2022/10/28 00:26:07;;;;;;;17.27;10.70;;;13.20;99.90;;;;;;4991789;28;20074;-83
2022/10/28 00:28:33;;;;;;;17.40;11.75;;;13.20;99.90;;;;;;4974090;28;20050;-83
2022/10/28 00:31:06;;;;;;;17.50;11.48;;;13.90;99.90;;;;;;4990992;28;20100;-83
2022/10/28 00:33:32;;;;;;;17.20;10.48;;;13.30;99.90;;;;;;4991968;28;20073;-83
2022/10/28 00:36:16;;;;;;;21.17;11.65;;;13.30;99.90;;;;;;4990776;28;20499;-83
2022/10/28 00:38:44;;;;;;;19.00;11.27;;;13.30;99.90;;;;;;4990556;28;20050;-83
2022/10/28 00:41:11;;;;;;;16.23;11.18;;;13.30;99.90;;;;;;4990728;28;20212;-83
2022/10/28 00:43:44;;;;;;;20.23;11.70;;;13.30;99.90;;;;;;4989892;28;20046;-83
2022/10/28 00:46:24;;;;;;;20.35;12.77;;;13.40;99.90;;;;;;4991820;28;20053;-83
2022/10/28 00:48:54;;;;;;;19.30;12.02;;;13.40;99.90;;;;;;4991345;28;20453;-83
2022/10/28 00:51:23;;;;;;;20.08;11.15;;;13.40;99.90;;;;;;4990603;28;20042;-83
2022/10/28 00:53:51;;;;;;;18.60;12.10;;;13.50;99.90;;;;;;4990230;28;20399;-84
2022/10/28 00:56:19;;;;;;;16.23;12.40;;;13.40;99.90;;;;;;4990872;28;20065;-83
2022/10/28 00:58:47;;;;;;;22.08;12.65;;;13.40;99.90;;;;;;4990500;28;20073;-83
2022/10/28 01:01:13;;;;;;;19.10;12.68;;;13.50;99.90;;;;;;4974211;28;20108;-83
2022/10/28 01:03:38;;;;;;;20.75;11.88;;;13.40;99.90;;;;;;4973392;28;20046;-83
2022/10/28 01:06:05;;;;;;;18.73;12.68;;;13.50;99.90;;;;;;4990356;28;20185;-83
2022/10/28 01:08:31;;;;;;;19.17;13.00;;;13.50;99.90;;;;;;4974204;28;20065;-83
2022/10/28 01:11:20;;;;;;;18.33;12.60;;;13.50;99.90;;;;;;4989932;28;20050;-83
2022/10/28 01:13:57;;;;;;;17.35;11.98;;;13.50;99.90;;;;;;4990032;28;20057;-83
2022/10/28 01:16:43;;;;;;;19.13;13.05;;;13.50;99.90;;;;;;4989335;28;20178;-83
2022/10/28 01:19:52;;;;;;;23.20;12.77;;;13.40;99.90;;;;;;4991660;28;20432;-83
2022/10/28 01:22:26;;;;;;;17.45;12.70;;;13.40;99.90;;;;;;4990913;28;20046;-83
2022/10/28 01:25:13;;;;;;;24.05;13.13;;;14.00;99.90;;;;;;4991329;28;20492;-83
2022/10/28 01:27:44;;;;;;;19.52;12.77;;;13.40;99.90;;;;;;4988679;28;20054;-83
2022/10/28 01:30:24;;;;;;;19.33;13.20;;;13.40;99.90;;;;;;4991363;28;20056;-83
2022/10/28 01:33:13;;;;;;;24.90;14.60;;;13.40;99.90;;;;;;4990902;28;20046;-83
2022/10/28 01:36:00;;;;;;;18.77;12.95;;;13.40;99.90;;;;;;4990664;28;20591;-83
2022/10/28 01:38:34;;;;;;;28.20;14.25;;;13.40;99.90;;;;;;4990737;28;20046;-83
2022/10/28 01:41:32;;;;;;;21.67;14.30;;;13.40;99.90;;;;;;4989251;28;20129;-83
2022/10/28 01:44:10;;;;;;;23.02;13.98;;;13.40;99.90;;;;;;4983755;28;20233;-83
2022/10/28 01:46:44;;;;;;;23.85;13.68;;;13.40;99.90;;;;;;4988848;28;20050;-83
2022/10/28 01:49:17;;;;;;;24.40;14.50;;;13.40;99.90;;;;;;4973662;28;20050;-83
2022/10/28 01:51:47;;;;;;;22.60;14.63;;;13.30;99.90;;;;;;4989128;28;20051;-83
2022/10/28 01:54:17;;;;;;;19.58;14.23;;;13.30;99.90;;;;;;4989349;28;20050;-83
2022/10/28 01:56:45;;;;;;;21.30;13.85;;;13.40;99.90;;;;;;4987870;28;20539;-83
2022/10/28 01:59:18;;;;;;;23.88;14.40;;;13.30;99.90;;;;;;4989391;28;20050;-83
2022/10/28 02:01:43;;;;;;;23.67;15.02;;;13.30;99.90;;;;;;4988928;28;20228;-83
2022/10/28 02:04:09;;;;;;;24.08;14.40;;;13.30;99.90;;;;;;4989335;28;20759;-83
2022/10/28 02:06:37;;;;;;;22.98;14.43;;;13.30;99.90;;;;;;4988652;28;20054;-83
2022/10/28 02:09:22;;;;;;;18.52;12.95;;;13.30;99.90;;;;;;4972812;28;20050;-83
2022/10/28 02:11:55;;;;;;;20.10;13.70;;;13.30;99.90;;;;;;4971803;28;20081;-83
2022/10/28 02:14:35;;;;;;;20.60;14.13;;;13.40;99.90;;;;;;4990742;28;20042;-83
2022/10/28 02:17:25;;;;;;;29.98;15.15;;;13.40;99.90;;;;;;4988456;28;20046;-83
2022/10/28 02:20:28;;;;;;;25.48;15.38;;;13.30;99.90;;;;;;4972872;28;20043;-82
2022/10/28 02:23:10;;;;;;;24.35;14.25;;;13.40;99.90;;;;;;4988873;28;20141;-82
2022/10/28 02:26:10;;;;;;;26.15;14.77;;;13.30;99.90;;;;;;4989931;28;20183;-82
2022/10/28 02:28:58;;;;;;;22.83;14.02;;;13.10;99.90;;;;;;4972269;28;20050;-82
2022/10/28 02:31:41;;;;;;;30.38;15.13;;;13.70;99.90;;;;;;4988244;28;20059;-82
2022/10/28 02:34:11;;;;;;;26.67;15.15;;;13.30;99.90;;;;;;4988251;28;20050;-82
2022/10/28 02:36:41;;;;;;;26.40;14.38;;;13.30;99.90;;;;;;4988319;28;20073;-82
2022/10/28 02:39:07;;;;;;;25.02;14.70;;;13.60;99.90;;;;;;4988534;28;20046;-82
2022/10/28 02:41:42;;;;;;;27.08;14.88;;;13.30;99.90;;;;;;4971291;28;20107;-82
2022/10/28 02:44:12;;;;;;;23.42;13.75;;;13.30;99.90;;;;;;4988451;28;20515;-82
2022/10/28 02:46:41;;;;;;;26.63;13.60;;;13.30;99.90;;;;;;4989421;28;20133;-82
2022/10/28 02:49:10;;;;;;;21.48;13.80;;;13.60;99.90;;;;;;4988463;28;20413;-82
2022/10/28 02:51:42;;;;;;;20.33;13.02;;;13.30;99.90;;;;;;4972354;28;20413;-82
2022/10/28 02:54:17;;;;;;;19.83;12.85;;;13.20;99.90;;;;;;4989545;28;20504;-83
2022/10/28 02:56:54;;;;;;;22.50;13.38;;;13.60;99.90;;;;;;4988555;28;20046;-83
2022/10/28 02:59:22;;;;;;;25.00;13.80;;;13.20;99.90;;;;;;4971755;28;20042;-82
2022/10/28 03:01:47;;;;;;;21.30;13.65;;;13.20;99.90;;;;;;4987895;28;20050;-82
2022/10/28 03:04:13;;;;;;;24.77;14.23;;;13.40;99.90;;;;;;4976673;28;20049;-82
2022/10/28 03:06:38;;;;;;;22.83;13.70;;;13.20;99.90;;;;;;4968612;28;20046;-83
2022/10/28 03:09:04;;;;;;;22.40;13.45;;;13.10;99.90;;;;;;4968499;28;20105;-82
2022/10/28 03:11:30;;;;;;;18.55;12.57;;;13.20;99.90;;;;;;4968779;28;20093;-82
2022/10/28 03:13:55;;;;;;;24.52;13.32;;;13.10;99.90;;;;;;4968412;28;20069;-82
2022/10/28 03:16:21;;;;;;;21.38;13.00;;;13.00;99.90;;;;;;4968704;28;20076;-82
2022/10/28 03:18:46;;;;;;;22.42;12.98;;;13.00;99.90;;;;;;4951409;28;20057;-82
2022/10/28 03:21:12;;;;;;;24.13;12.73;;;12.90;99.90;;;;;;4967979;28;20046;-82
2022/10/28 03:23:37;;;;;;;19.92;12.07;;;13.00;99.90;;;;;;4968506;28;20085;-82
2022/10/28 03:26:03;;;;;;;20.33;13.15;;;13.00;99.90;;;;;;4969861;28;20122;-82
2022/10/28 03:28:29;;;;;;;20.70;12.35;;;13.00;99.90;;;;;;4967754;28;20146;-82
2022/10/28 03:30:54;;;;;;;18.92;12.85;;;12.90;99.90;;;;;;4969127;28;20058;-82
2022/10/28 03:33:20;;;;;;;20.08;12.60;;;12.90;99.90;;;;;;4969639;28;20043;-82
2022/10/28 03:35:45;;;;;;;22.13;12.75;;;13.20;99.90;;;;;;4968419;28;20039;-82
2022/10/28 03:38:11;;;;;;;23.55;12.70;;;13.00;99.90;;;;;;4967989;28;20396;-82
2022/10/28 03:40:36;;;;;;;26.35;12.95;;;12.90;99.90;;;;;;4968087;28;20050;-83
2022/10/28 03:43:02;;;;;;;23.00;13.07;;;12.90;99.90;;;;;;4967863;28;20049;-82
2022/10/28 03:45:27;;;;;;;18.90;11.75;;;12.90;99.90;;;;;;4967896;28;20047;-82
2022/10/28 03:47:53;;;;;;;24.88;12.90;;;12.90;99.90;;;;;;4968991;28;20049;-83
2022/10/28 03:50:18;;;;;;;22.92;13.05;;;12.80;99.90;;;;;;4968384;28;20089;-82
2022/10/28 03:52:45;;;;;;;19.45;12.82;;;12.80;99.90;;;;;;4969115;28;20054;-82
2022/10/28 03:55:10;;;;;;;21.13;11.57;;;12.80;99.90;;;;;;4969108;28;20054;-82
2022/10/28 03:57:36;;;;;;;18.38;12.02;;;13.00;99.90;;;;;;4967078;28;20074;-82
2022/10/28 04:00:03;;;;;;;21.52;12.23;;;12.80;99.90;;;;;;4968104;28;20058;-82
2022/10/28 04:02:28;;;;;;;22.38;12.65;;;12.80;99.90;;;;;;4968196;28;20054;-82
2022/10/28 04:04:54;;;;;;;21.23;12.30;;;12.80;99.90;;;;;;4968333;28;20050;-82
2022/10/28 04:07:20;;;;;;;18.70;12.27;;;12.70;99.90;;;;;;4969248;28;20043;-82
2022/10/28 04:09:48;;;;;;;22.90;13.02;;;12.70;99.90;;;;;;4968865;28;20038;-82
2022/10/28 04:12:14;;;;;;;23.33;13.18;;;12.70;99.90;;;;;;4967283;28;20182;-83
2022/10/28 04:14:39;;;;;;;17.70;12.38;;;12.70;99.90;;;;;;4968047;28;20643;-82
2022/10/28 04:17:05;;;;;;;22.15;12.05;;;12.70;99.90;;;;;;4967987;28;20042;-83
2022/10/28 04:19:30;;;;;;;22.13;12.90;;;12.70;99.90;;;;;;4968794;28;20042;-82
2022/10/28 04:21:56;;;;;;;21.40;12.20;;;12.90;99.90;;;;;;4968586;28;20417;-82
2022/10/28 04:24:21;;;;;;;23.35;13.50;;;12.70;99.90;;;;;;4967682;28;20047;-83
2022/10/28 04:26:50;;;;;;;22.55;12.15;;;12.70;99.90;;;;;;4951627;28;20130;-83
2022/10/28 04:29:15;;;;;;;21.63;11.93;;;12.80;99.90;;;;;;4967827;28;20146;-83
2022/10/28 04:31:41;;;;;;;23.20;12.52;;;12.80;99.90;;;;;;4971063;28;20189;-83
2022/10/28 04:34:07;;;;;;;21.00;12.43;;;12.80;99.90;;;;;;4971363;28;20042;-83
2022/10/28 04:36:35;;;;;;;21.80;12.82;;;12.80;99.90;;;;;;4970840;28;20054;-83
2022/10/28 04:39:03;;;;;;;21.58;12.98;;;12.80;99.90;;;;;;4970978;28;20051;-83
2022/10/28 04:41:29;;;;;;;20.65;12.05;;;12.80;99.90;;;;;;4970497;28;20047;-83
2022/10/28 04:43:55;;;;;;;25.17;13.48;;;12.80;99.90;;;;;;4970999;28;20113;-83
2022/10/28 04:46:23;;;;;;;19.70;12.43;;;12.80;99.90;;;;;;4971257;28;20050;-83
2022/10/28 04:48:49;;;;;;;23.00;13.13;;;12.90;99.90;;;;;;4972632;28;20043;-82
2022/10/28 04:51:15;;;;;;;22.50;12.35;;;13.20;99.90;;;;;;4970366;28;20144;-83
2022/10/28 04:53:40;;;;;;;24.20;13.00;;;12.90;99.90;;;;;;4970997;28;20078;-83
2022/10/28 04:56:07;;;;;;;19.02;12.88;;;13.00;99.90;;;;;;4971821;28;20062;-83
2022/10/28 04:58:32;;;;;;;18.00;12.18;;;13.00;99.90;;;;;;4970118;28;20142;-83
2022/10/28 05:00:58;;;;;;;25.40;12.98;;;12.90;99.90;;;;;;4970879;28;20200;-83
2022/10/28 05:03:30;;;;;;;22.50;11.25;;;12.90;99.90;;;;;;4970687;28;20142;-83
2022/10/28 05:05:55;;;;;;;21.73;12.15;;;12.90;99.90;;;;;;4970681;28;20453;-83
2022/10/28 05:08:21;;;;;;;18.48;12.07;;;12.90;99.90;;;;;;4971179;28;20055;-83
2022/10/28 05:10:48;;;;;;;21.75;12.88;;;12.80;99.90;;;;;;4971106;28;20129;-83
2022/10/28 05:13:14;;;;;;;21.38;12.90;;;12.80;99.90;;;;;;4969862;28;20130;-83
2022/10/28 05:15:40;;;;;;;20.50;11.85;;;12.90;99.90;;;;;;4970243;28;20129;-83
2022/10/28 05:18:05;;;;;;;18.63;11.77;;;12.90;99.90;;;;;;4971260;28;20476;-83
2022/10/28 05:20:31;;;;;;;22.13;12.27;;;12.90;99.90;;;;;;4970595;28;20105;-83
2022/10/28 05:22:56;;;;;;;19.25;12.93;;;12.90;99.90;;;;;;4970460;28;20428;-83
2022/10/28 05:25:23;;;;;;;20.08;12.25;;;12.80;99.90;;;;;;4970414;28;20412;-83
2022/10/28 05:27:49;;;;;;;22.33;12.60;;;12.80;99.90;;;;;;4969563;28;20113;-83
2022/10/28 05:30:15;;;;;;;21.05;12.45;;;12.80;99.90;;;;;;4970885;28;20039;-83
2022/10/28 05:32:41;;;;;;;26.80;13.07;;;12.80;99.90;;;;;;4970847;28;20179;-83
2022/10/28 05:35:07;;;;;;;23.67;12.65;;;12.70;99.90;;;;;;4971416;28;20051;-83
2022/10/28 05:37:33;;;;;;;22.50;12.63;;;12.70;99.90;;;;;;4969782;28;20096;-83
2022/10/28 05:39:58;;;;;;;19.88;12.02;;;12.70;99.90;;;;;;4970197;28;20436;-83
2022/10/28 05:42:24;;;;;;;21.02;12.25;;;12.70;99.90;;;;;;4968919;28;20058;-83
2022/10/28 05:44:50;;;;;;;21.20;11.88;;;12.70;99.90;;;;;;4953966;28;20078;-83
2022/10/28 05:47:15;;;;;;;19.98;12.32;;;12.70;99.90;;;;;;4969543;28;20081;-83
2022/10/28 05:49:41;;;;;;;20.35;12.82;;;12.70;99.90;;;;;;4969810;28;20046;-82
2022/10/28 05:52:06;;;;;;;21.08;11.73;;;12.70;99.90;;;;;;4953682;28;20053;-83
2022/10/28 05:54:32;;;;;;;16.98;11.98;;;12.70;99.90;;;;;;4969646;28;20394;-82
2022/10/28 05:56:57;;;;;;;20.13;12.82;;;12.60;99.90;;;;;;4969038;28;20062;-83
2022/10/28 05:59:23;;;;;;;20.58;12.13;;;12.60;99.90;;;;;;4971567;28;20303;-84
2022/10/28 06:01:49;;;;;;;17.90;11.10;;;12.60;99.90;;;;;;4969613;28;20473;-84
2022/10/28 06:04:14;;;;;;;21.92;11.93;;;12.50;99.90;;;;;;4969871;28;20071;-83
2022/10/28 06:06:40;;;;;;;21.00;12.02;;;12.50;99.90;;;;;;4969526;28;20043;-84
2022/10/28 06:09:05;;;;;;;19.10;12.60;;;12.50;99.90;;;;;;4969683;28;20171;-82
2022/10/28 06:11:31;;;;;;;20.70;11.93;;;12.40;99.90;;;;;;4970530;28;20401;-82
2022/10/28 06:13:57;;;;;;;18.70;11.77;;;12.50;99.90;;;;;;4969272;28;20129;-82
2022/10/28 06:16:22;;;;;;;19.88;12.10;;;12.50;99.90;;;;;;4953058;28;20043;-83
2022/10/28 06:18:48;;;;;;;21.90;12.48;;;12.90;99.90;;;;;;4953316;28;20122;-83
2022/10/28 06:21:13;;;;;;;19.65;11.73;;;12.50;99.90;;;;;;4970758;28;20042;-82
2022/10/28 06:23:39;;;;;;;18.10;11.55;;;12.50;99.90;;;;;;4970879;28;20113;-82
2022/10/28 06:26:05;;;;;;;20.90;11.38;;;12.50;99.90;;;;;;4970557;28;20093;-83
2022/10/28 06:28:31;;;;;;;20.02;12.10;;;12.50;99.90;;;;;;4970333;28;20042;-83
2022/10/28 06:31:04;;;;;;;19.15;12.57;;;12.40;99.90;;;;;;4969830;28;20446;-83
2022/10/28 06:33:30;;;;;;;22.35;12.35;;;12.50;99.90;;;;;;4968851;28;20058;-83
2022/10/28 06:35:57;;;;;;;22.23;12.13;;;12.50;99.90;;;;;;4969184;28;20445;-83
2022/10/28 06:38:23;;;;;;;19.25;12.60;;;12.50;99.90;;;;;;4952943;28;20488;-84
2022/10/28 06:40:49;;;;;;;18.75;11.48;;;12.50;99.90;;;;;;4969136;28;20054;-84
2022/10/28 06:43:15;;;;;;;19.70;11.95;;;12.50;99.90;;;;;;4952723;28;20054;-85
2022/10/28 06:45:41;;;;;;;21.23;11.65;;;12.50;99.90;;;;;;4968625;28;20051;-84
2022/10/28 06:48:07;;;;;;;25.25;11.18;;;12.50;99.90;;;;;;4952814;28;20047;-84
2022/10/28 06:50:34;;;;;;;21.05;12.10;;;12.50;99.90;;;;;;4968799;28;20069;-84
2022/10/28 06:53:00;;;;;;;22.42;13.70;;;12.50;99.90;;;;;;4968485;28;20043;-84
2022/10/28 06:55:27;;;;;;;20.60;15.05;;;12.50;99.90;;;;;;4969757;28;20039;-84
2022/10/28 06:57:53;;;;;;;23.50;13.95;;;12.60;99.90;;;;;;4968308;28;20077;-84
2022/10/28 07:00:19;;;;;;;19.45;12.75;;;12.60;99.90;;;;;;4970066;28;20046;-84
2022/10/28 07:02:49;;;;;;;25.58;15.23;;;12.60;99.90;;;;;;4968924;28;20046;-84
2022/10/28 07:05:15;;;;;;;26.65;14.95;;;12.70;99.90;;;;;;4968785;28;20173;-84
2022/10/28 07:07:40;;;;;;;21.08;13.15;;;12.70;99.90;;;;;;4968555;28;20141;-83
2022/10/28 07:10:06;;;;;;;17.60;11.60;;;12.70;99.90;;;;;;4952817;28;20066;-84
2022/10/28 07:12:32;;;;;;;16.27;11.73;;;12.80;99.90;;;;;;4969396;28;20043;-84
2022/10/28 07:14:58;;;;;;;18.02;11.02;;;12.80;99.90;;;;;;4968520;28;20057;-84
2022/10/28 07:17:23;;;;;;;21.70;11.27;;;12.90;99.90;;;;;;4968450;28;20047;-84
2022/10/28 07:19:49;;;;;;;22.35;12.38;;;12.90;99.90;;;;;;4968061;28;20047;-84
2022/10/28 07:22:14;;;;;;;20.55;11.95;;;13.00;99.90;;;;;;4952497;28;20401;-84
2022/10/28 07:24:40;;;;;;;22.13;11.55;;;13.10;99.90;;;;;;4969443;28;20039;-84
2022/10/28 07:27:07;;;;;;;17.08;10.75;;;13.10;99.90;;;;;;4968016;28;20054;-84
2022/10/28 07:29:32;;;;;;;19.27;11.50;;;13.20;99.90;;;;;;4968339;28;20045;-84
2022/10/28 07:31:58;;;;;;;19.77;10.50;;;13.30;99.90;;;;;;4969141;28;20047;-84
2022/10/28 07:34:24;;;;;;;21.92;11.50;;;13.30;99.90;;;;;;4952132;28;20051;-83
2022/10/28 07:36:53;;;;;;;21.48;12.32;;;13.40;99.90;;;;;;4969634;28;20039;-84
2022/10/28 07:39:20;;;;;;;21.20;12.32;;;13.50;99.90;;;;;;4969649;28;20133;-84
2022/10/28 07:41:46;;;;;;;22.73;11.45;;;14.10;99.90;;;;;;4967834;28;20054;-84
2022/10/28 07:44:11;;;;;;;18.40;9.80;;;13.60;99.90;;;;;;4968756;28;20050;-84
2022/10/28 07:46:37;;;;;;;20.30;11.15;;;13.70;99.90;;;;;;4951510;28;20800;-84
2022/10/28 07:49:03;;;;;;;17.17;10.07;;;14.00;99.90;;;;;;4969378;28;20171;-84
2022/10/28 07:51:28;;;;;;;14.07;9.90;;;13.90;99.90;;;;;;4952163;28;20145;-84
2022/10/28 07:53:55;;;;;;;22.70;10.07;;;14.00;99.90;;;;;;4968126;28;20065;-84
2022/10/28 07:56:21;;;;;;;16.30;9.52;;;14.10;99.90;;;;;;4966742;28;20061;-83
2022/10/28 07:58:47;;;;;;;17.52;9.32;;;14.10;99.90;;;;;;4968505;28;20062;-84
2022/10/28 08:01:15;;;;;;;18.05;8.73;;;14.30;99.90;;;;;;4969598;28;20619;-84
2022/10/28 08:03:40;;;;;;;14.98;8.07;;;14.50;99.90;;;;;;4968276;28;20046;-84
2022/10/28 08:06:09;;;;;;;15.45;8.57;;;14.60;99.90;;;;;;4970186;28;20047;-85
2022/10/28 08:08:36;;;;;;;16.50;8.43;;;14.60;99.90;;;;;;4955788;28;20129;-84
2022/10/28 08:11:17;;;;;;;17.73;8.48;;;14.70;99.90;;;;;;4971839;28;20038;-85
2022/10/28 08:13:43;;;;;;;17.27;8.80;;;14.90;99.90;;;;;;4971497;28;20059;-85
2022/10/28 08:16:08;;;;;;;15.43;7.50;;;14.90;99.90;;;;;;4955909;28;20093;-84
2022/10/28 08:18:35;;;;;;;16.08;7.40;;;15.10;99.90;;;;;;4972921;28;20053;-85
2022/10/28 08:21:02;;;;;;;17.73;8.20;;;15.00;99.90;;;;;;4971635;28;20042;-85
2022/10/28 08:23:28;;;;;;;13.20;7.43;;;15.60;99.90;;;;;;4971272;28;20082;-85
2022/10/28 08:25:54;;;;;;;12.65;7.18;;;15.20;99.90;;;;;;4971582;28;20054;-85
2022/10/28 08:28:20;;;;;;;16.40;7.65;;;15.30;99.90;;;;;;4970968;28;20047;-85
2022/10/28 08:30:46;;;;;;;17.25;7.55;;;15.40;99.90;;;;;;4971495;28;20050;-84
2022/10/28 08:33:12;;;;;;;12.07;7.55;;;15.40;99.90;;;;;;4970938;28;20050;-85
2022/10/28 08:35:38;;;;;;;13.60;7.40;;;15.50;99.90;;;;;;4971522;28;20101;-85
2022/10/28 08:38:04;;;;;;;16.02;8.25;;;15.80;99.90;;;;;;4955773;28;20607;-83
2022/10/28 08:40:56;;;;;;;15.35;8.10;;;15.70;99.90;;;;;;4955170;28;20045;-84
2022/10/28 08:43:45;;;;;;;15.87;7.17;;;15.80;99.90;;;;;;4970633;28;20050;-85
2022/10/28 08:46:29;;;;;;;11.00;7.25;;;15.80;99.90;;;;;;4971585;28;20504;-84
2022/10/28 08:48:54;;;;;;;12.98;7.55;;;15.90;99.90;;;;;;4971422;28;20509;-84
2022/10/28 08:51:39;;;;;;;17.30;8.07;;;16.00;99.90;;;;;;4970830;28;20306;-84
2022/10/28 08:54:36;;;;;;;18.55;7.55;;;16.10;99.90;;;;;;4970869;28;20050;-83
2022/10/28 08:57:08;;;;;;;19.45;8.00;;;16.20;99.90;;;;;;4969805;28;20074;-85
2022/10/28 08:59:37;;;;;;;15.43;7.28;;;16.40;99.90;;;;;;4971116;28;20543;-86
2022/10/28 09:02:22;;;;;;;13.50;6.72;;;16.50;99.90;;;;;;4972214;28;20516;-82
2022/10/28 09:05:06;;;;;;;15.35;6.50;;;16.60;99.90;;;;;;4970190;28;20100;-84
2022/10/28 09:07:35;;;;;;;14.18;6.22;;;16.90;99.90;;;;;;4971895;28;20093;-84
2022/10/28 09:10:04;;;;;;;15.02;6.75;;;17.00;99.90;;;;;;4970543;28;20042;-87
2022/10/28 09:13:02;;;;;;;11.95;6.85;;;17.10;99.90;;;;;;4970079;28;20050;-88
2022/10/28 09:15:46;;;;;;;15.82;6.43;;;17.40;99.90;;;;;;4954642;28;20054;-87
2022/10/28 09:18:47;;;;;;;13.70;6.35;;;17.30;99.90;;;;;;4970554;28;20335;-89
2022/10/28 09:21:45;;;;;;;17.73;7.13;;;17.30;99.90;;;;;;4970201;28;20148;-89
2022/10/28 09:24:18;;;;;;;15.45;6.57;;;17.40;99.90;;;;;;4954869;28;20051;-88
2022/10/28 09:26:57;;;;;;;14.57;6.78;;;17.70;99.90;;;;;;4970412;28;20161;-89
2022/10/28 09:29:56;;;;;;;13.25;7.00;;;17.50;99.90;;;;;;4954886;28;20101;-87
2022/10/28 09:32:33;;;;;;;9.18;6.03;;;17.50;99.90;;;;;;4969425;28;20051;-83
2022/10/28 09:35:12;;;;;;;16.20;7.43;;;17.50;99.90;;;;;;4970685;28;20505;-87
2022/10/28 09:37:43;;;;;;;16.25;6.55;;;17.60;99.90;;;;;;4953936;28;20049;-86
2022/10/28 09:40:21;;;;;;;14.23;7.05;;;17.60;99.90;;;;;;4970525;28;20047;-84
2022/10/28 09:43:05;;;;;;;11.10;6.18;;;17.70;99.90;;;;;;4969565;28;20047;-84
2022/10/28 09:45:34;;;;;;;14.70;6.80;;;17.70;99.90;;;;;;4971106;28;20046;-83
2022/10/28 09:48:19;;;;;;;13.57;6.80;;;18.20;99.90;;;;;;4971313;28;20050;-85
2022/10/28 09:50:49;;;;;;;15.63;6.72;;;17.80;99.90;;;;;;4971269;28;20564;-85
2022/10/28 09:53:42;;;;;;;15.25;6.85;;;17.90;99.90;;;;;;4971129;28;20051;-83
2022/10/28 09:56:08;;;;;;;13.48;6.65;;;17.90;99.90;;;;;;4969638;28;20061;-85
2022/10/28 09:58:35;;;;;;;14.38;6.43;;;17.90;99.90;;;;;;4969623;28;20112;-87
2022/10/28 10:01:03;;;;;;;13.70;6.28;;;17.90;99.90;;;;;;4969646;28;20073;-85
2022/10/28 10:03:29;;;;;;;12.30;6.13;;;17.90;99.90;;;;;;4970789;28;20050;-84
2022/10/28 10:05:58;;;;;;;10.38;6.13;;;17.90;99.90;;;;;;4971506;28;20121;-83
2022/10/28 10:08:24;;;;;;;11.50;6.78;;;17.90;99.90;;;;;;4970776;28;20046;-83
2022/10/28 10:11:05;;;;;;;12.55;6.45;;;18.10;99.90;;;;;;4969393;28;20565;-82
2022/10/28 10:13:37;;;;;;;15.07;6.95;;;17.90;99.90;;;;;;4970095;28;20051;-82
2022/10/28 10:16:22;;;;;;;14.02;6.68;;;18.10;99.90;;;;;;4969825;28;20097;-83
2022/10/28 10:18:52;;;;;;;13.43;6.63;;;18.00;99.90;;;;;;4969419;28;20498;-82
2022/10/28 10:21:45;;;;;;;17.60;6.40;;;18.00;99.90;;;;;;4968661;28;20051;-84
2022/10/28 10:24:24;;;;;;;19.65;6.68;;;18.10;99.90;;;;;;4969459;28;20097;-83
2022/10/28 10:26:51;;;;;;;11.93;5.38;;;18.10;99.90;;;;;;4968872;28;20042;-83
2022/10/28 10:29:17;;;;;;;14.63;5.93;;;18.40;99.90;;;;;;4969065;28;20196;-83
2022/10/28 10:31:44;;;;;;;12.77;5.63;;;18.20;99.90;;;;;;4969398;28;20393;-83
2022/10/28 10:34:22;;;;;;;14.55;5.85;;;18.30;99.90;;;;;;4968746;28;20134;-83
2022/10/28 10:36:50;;;;;;;14.63;5.70;;;18.40;99.90;;;;;;4969153;28;20050;-83
2022/10/28 10:39:25;;;;;;;18.17;6.63;;;18.50;99.90;;;;;;4969324;28;20045;-84
2022/10/28 10:41:54;;;;;;;20.10;6.40;;;18.50;99.90;;;;;;4968801;28;20286;-84
2022/10/28 10:44:19;;;;;;;15.10;6.32;;;18.80;99.90;;;;;;4968931;28;20101;-83
2022/10/28 10:47:05;;;;;;;15.18;6.32;;;18.60;99.90;;;;;;4970186;28;20051;-84
2022/10/28 10:49:31;;;;;;;10.88;5.57;;;18.90;99.90;;;;;;4968992;28;20066;-84
2022/10/28 10:52:03;;;;;;;12.30;5.40;;;18.70;99.90;;;;;;4968859;28;20572;-84
2022/10/28 10:54:32;;;;;;;16.08;5.82;;;18.70;99.90;;;;;;4969920;28;20050;-84
2022/10/28 10:57:19;;;;;;;13.18;5.93;;;18.80;99.90;;;;;;4968146;28;20715;-82
2022/10/28 10:59:47;;;;;;;13.55;5.25;;;18.80;99.90;;;;;;4969100;28;20059;-82
2022/10/28 11:02:38;;;;;;;13.45;6.22;;;18.80;99.90;;;;;;4968473;28;20055;-83
2022/10/28 11:05:10;;;;;;;13.05;5.60;;;18.90;99.90;;;;;;4953117;28;20354;-82
2022/10/28 11:07:39;;;;;;;;;;;18.90;99.90;;;;;;4969094;28;20500;-82
2022/10/28 11:10:06;;;;;;;13.85;6.07;;;18.90;99.90;;;;;;4968746;28;19922;-82
2022/10/28 11:12:37;;;;;;;15.73;6.68;;;18.90;99.90;;;;;;4968100;28;20053;-82
2022/10/28 11:15:20;;;;;;;12.50;6.55;;;19.00;99.90;;;;;;4968867;28;20039;-83
2022/10/28 11:17:54;;;;;;;11.07;5.47;;;19.10;99.90;;;;;;4968439;28;20381;-84
2022/10/28 11:20:42;;;;;;;10.93;5.57;;;19.50;99.90;;;;;;4968415;28;20042;-83
2022/10/28 11:23:35;;;;;;;12.10;5.45;;;19.40;99.90;;;;;;4968184;28;20509;-83
2022/10/28 11:26:06;;;;;;;14.10;5.68;;;19.60;99.90;;;;;;4970258;28;20109;-83
2022/10/28 11:28:40;;;;;;;9.95;5.97;;;19.70;99.90;;;;;;4969621;28;20117;-83
2022/10/28 11:31:09;;;;;;;10.80;5.03;;;20.00;99.90;;;;;;4952307;28;20043;-82
2022/10/28 11:34:16;;;;;;;15.52;6.50;;;19.90;99.90;;;;;;4969616;28;20058;-84
2022/10/28 11:37:08;;;;;;;14.32;5.78;;;19.90;99.90;;;;;;4969173;28;20580;-82
2022/10/28 11:40:09;;;;;;;13.07;5.47;;;20.00;99.90;;;;;;4951600;28;20051;-82
2022/10/28 11:43:24;;;;;;;16.20;5.15;;;20.00;99.90;;;;;;4968947;28;20059;-82
2022/10/28 11:45:58;;;;;;;10.68;5.18;;;20.00;99.90;;;;;;4970943;28;20509;-82
2022/10/28 11:48:51;;;;;;;14.75;5.88;;;20.00;99.90;;;;;;4969263;28;20054;-83
2022/10/28 11:51:22;;;;;;;13.48;4.78;;;20.00;99.90;;;;;;4969490;28;20047;-82
2022/10/28 11:53:56;;;;;;;13.40;5.32;;;19.90;99.90;;;;;;4969342;28;20512;-82
2022/10/28 11:56:46;;;;;;;13.15;5.13;;;20.10;99.90;;;;;;4967928;28;20058;-82
2022/10/28 12:00:02;;;;;;;11.18;5.32;;;20.20;99.90;;;;;;4969629;28;20571;-82
2022/10/28 12:02:58;;;;;;;15.90;5.88;;;20.30;99.90;;;;;;4954070;28;20065;-81
2022/10/28 12:05:32;;;;;;;15.50;5.47;;;20.30;99.90;;;;;;4985711;28;20471;-82
2022/10/28 12:08:06;;;;;;;16.48;5.53;;;20.60;99.90;;;;;;4967726;28;20094;-82
2022/10/28 12:10:34;;;;;;;14.48;5.50;;;20.40;99.90;;;;;;4969572;28;20046;-82
2022/10/28 12:13:33;;;;;;;11.57;5.32;;;20.40;99.90;;;;;;4968094;28;20141;-82
2022/10/28 12:16:07;;;;;;;10.68;4.68;;;20.40;99.90;;;;;;4969155;28;20070;-83
2022/10/28 12:18:43;;;;;;;13.45;5.65;;;20.40;99.90;;;;;;4968888;28;20519;-82
2022/10/28 12:21:13;;;;;;;13.60;5.35;;;20.50;99.90;;;;;;4951997;28;20057;-82
2022/10/28 12:23:41;;;;;;;16.38;5.57;;;20.40;99.90;;;;;;4969294;28;20054;-84
2022/10/28 12:26:11;;;;;;;14.75;4.97;;;20.40;99.90;;;;;;4967705;28;20097;-84
2022/10/28 12:28:44;;;;;;;17.13;5.63;;;20.40;99.90;;;;;;4966959;28;20714;-82
2022/10/28 12:31:36;;;;;;;17.65;5.90;;;20.50;99.90;;;;;;4951915;28;20043;-83
2022/10/28 12:34:08;;;;;;;20.77;6.00;;;20.40;99.90;;;;;;4968100;28;20157;-83
2022/10/28 12:36:49;;;;;;;17.20;6.22;;;20.60;99.90;;;;;;4967514;28;20046;-83
2022/10/28 12:39:26;;;;;;;17.05;5.50;;;20.50;99.90;;;;;;4967545;28;20083;-83
2022/10/28 12:42:22;;;;;;;14.68;4.88;;;20.50;99.90;;;;;;4967244;28;20055;-83
2022/10/28 12:44:50;;;;;;;14.77;5.00;;;20.50;99.90;;;;;;4967873;28;20050;-83
2022/10/28 12:47:35;;;;;;;13.00;5.30;;;20.40;99.90;;;;;;4967274;28;20117;-83
2022/10/28 12:50:07;;;;;;;11.13;4.50;;;20.50;99.90;;;;;;4951450;28;20055;-83
2022/10/28 12:52:51;;;;;;;13.57;5.43;;;20.50;99.90;;;;;;4970484;28;20077;-83
2022/10/28 12:55:34;;;;;;;15.48;5.63;;;20.40;99.90;;;;;;4970968;28;20047;-82